Juliaca, Peru
Current Conditions -  °F | °C
As of 9:00 PM on Sunday 25 Jan 2015 (Local Time) from SPJL Reporting Station
Broken Clouds Broken Clouds  
Wind Chill: 44°   Ceiling: 8000
Heat Index: 46°   Visibility: 6mi
Dew Point: 39°   Wind: 6mph
Humidity: 76%   Direction: 220°SW
Pressure: 30.59"   Gusts: NA
Location:  15.5°S, 70.14°W
Report Text: SPJL 260200Z 22005KT 9999 FEW010 BKN080 08/04 Q1036 RMK PP000
Loading
Personal Weather Stations






























Interactive Weather Map New forecast layout! Learn more

10-Day Weather Forecast

Advertisements
Track Severe Weather on mobile